createdAt,value
2022-09-07T00:00:53.703Z,9.07
2022-09-07T00:03:21.468Z,9.13
2022-09-07T00:05:51.242Z,9.10
2022-09-07T00:08:22.694Z,8.85
2022-09-07T00:11:03.936Z,9.45
2022-09-07T00:13:35.390Z,9.77
2022-09-07T00:16:22.398Z,9.48
2022-09-07T00:18:49.792Z,8.93
2022-09-07T00:21:18.071Z,9.45
2022-09-07T00:23:45.882Z,9.30
2022-09-07T00:26:20.697Z,10.00
2022-09-07T00:28:48.973Z,8.40
2022-09-07T00:31:20.556Z,8.27
2022-09-07T00:33:49.404Z,9.45
2022-09-07T00:36:18.987Z,8.40
2022-09-07T00:38:46.523Z,8.52
2022-09-07T00:41:15.177Z,9.05
2022-09-07T00:43:58.270Z,9.15
2022-09-07T00:46:29.783Z,8.38
2022-09-07T00:49:15.006Z,9.00
2022-09-07T00:51:53.392Z,9.45
2022-09-07T00:54:35.977Z,9.98
2022-09-07T00:57:03.705Z,10.23
2022-09-07T00:59:37.692Z,10.50
2022-09-07T01:02:05.871Z,10.43
2022-09-07T01:04:33.511Z,10.50
2022-09-07T01:07:01.952Z,10.57
2022-09-07T01:09:30.963Z,11.43
2022-09-07T01:12:01.155Z,11.10
2022-09-07T01:14:43.123Z,11.13
2022-09-07T01:17:47.979Z,12.10
2022-09-07T01:20:43.772Z,12.25
2022-09-07T01:24:03.851Z,12.63
2022-09-07T01:27:31.707Z,12.02
2022-09-07T01:30:10.020Z,12.75
2022-09-07T01:33:14.055Z,13.00
2022-09-07T01:36:21.881Z,12.70
2022-09-07T01:38:59.926Z,12.55
2022-09-07T01:41:38.218Z,13.35
2022-09-07T01:44:28.826Z,13.00
2022-09-07T01:47:18.684Z,13.07
2022-09-07T01:49:56.162Z,14.20
2022-09-07T01:52:44.649Z,13.13
2022-09-07T01:55:21.530Z,13.98
2022-09-07T01:58:12.253Z,13.38
2022-09-07T02:00:49.320Z,13.60
2022-09-07T02:03:41.389Z,14.00
2022-09-07T02:06:18.864Z,13.63
2022-09-07T02:08:59.180Z,13.48
2022-09-07T02:11:37.815Z,13.82
2022-09-07T02:14:20.254Z,14.18
2022-09-07T02:17:29.118Z,13.55
2022-09-07T02:20:04.790Z,12.48
2022-09-07T02:22:39.184Z,14.07
2022-09-07T02:25:10.278Z,13.82
2022-09-07T02:27:50.197Z,13.82
2022-09-07T02:30:17.602Z,14.15
2022-09-07T02:32:44.829Z,13.85
2022-09-07T02:35:12.675Z,13.40
2022-09-07T02:37:42.655Z,13.32
2022-09-07T02:40:11.199Z,12.85
2022-09-07T02:42:39.462Z,12.85
2022-09-07T02:45:09.616Z,12.73
2022-09-07T02:48:06.701Z,12.63
2022-09-07T02:51:02.399Z,12.25
2022-09-07T02:53:52.607Z,12.15
2022-09-07T02:56:35.990Z,13.00
2022-09-07T02:59:51.308Z,12.77
2022-09-07T03:02:31.179Z,12.77
2022-09-07T03:05:47.212Z,12.45
2022-09-07T03:08:30.180Z,13.15
2022-09-07T03:10:58.424Z,13.02
2022-09-07T03:13:29.608Z,13.13
2022-09-07T03:15:57.545Z,13.20
2022-09-07T03:18:27.195Z,13.05
2022-09-07T03:20:54.889Z,12.65
2022-09-07T03:23:21.954Z,12.27
2022-09-07T03:25:49.206Z,12.45
2022-09-07T03:28:16.574Z,12.90
2022-09-07T03:30:46.172Z,12.05
2022-09-07T03:33:15.812Z,11.85
2022-09-07T03:35:45.102Z,11.50
2022-09-07T03:38:12.823Z,11.60
2022-09-07T03:40:39.965Z,12.15
2022-09-07T03:43:07.062Z,12.38
2022-09-07T03:45:34.198Z,12.30
2022-09-07T03:48:01.222Z,11.85
2022-09-07T03:50:29.134Z,11.85
2022-09-07T03:52:56.214Z,11.77
2022-09-07T03:55:23.279Z,11.95
2022-09-07T03:57:50.368Z,12.73
2022-09-07T04:00:17.692Z,12.75
2022-09-07T04:02:44.742Z,12.45
2022-09-07T04:05:11.877Z,12.73
2022-09-07T04:07:38.966Z,12.93
2022-09-07T04:10:06.514Z,12.15
2022-09-07T04:12:33.612Z,12.07
2022-09-07T04:15:00.859Z,12.10
2022-09-07T04:17:28.187Z,12.32
2022-09-07T04:19:55.814Z,11.85
2022-09-07T04:22:22.771Z,12.38
2022-09-07T04:24:49.757Z,12.57
2022-09-07T04:27:16.738Z,12.35
2022-09-07T04:29:43.747Z,12.25
2022-09-07T04:32:15.506Z,11.85
2022-09-07T04:34:42.853Z,12.23
2022-09-07T04:37:09.830Z,11.57
2022-09-07T04:39:36.885Z,11.85
2022-09-07T04:42:04.414Z,11.45
2022-09-07T04:44:31.448Z,12.55
2022-09-07T04:46:58.442Z,12.45
2022-09-07T04:49:25.638Z,12.20
2022-09-07T04:51:52.701Z,12.75
2022-09-07T04:54:19.909Z,12.80
2022-09-07T04:56:47.046Z,12.82
2022-09-07T04:59:14.392Z,12.98
2022-09-07T05:01:41.464Z,13.07
2022-09-07T05:04:08.663Z,12.80
2022-09-07T05:06:35.814Z,12.77
2022-09-07T05:09:02.886Z,13.25
2022-09-07T05:11:30.286Z,12.85
2022-09-07T05:14:02.425Z,12.43
2022-09-07T05:16:31.012Z,12.70
2022-09-07T05:19:04.053Z,12.60
2022-09-07T05:21:34.837Z,13.18
2022-09-07T05:24:03.013Z,12.85
2022-09-07T05:26:34.340Z,13.32
2022-09-07T05:31:51.424Z,13.50
2022-09-07T05:34:33.960Z,13.07
2022-09-07T05:37:01.861Z,14.38
2022-09-07T05:39:29.526Z,13.75
2022-09-07T05:41:56.780Z,13.63
2022-09-07T05:47:11.538Z,15.00
2022-09-07T05:49:38.636Z,14.75
2022-09-07T05:52:05.910Z,15.77
2022-09-07T05:54:32.952Z,15.05
2022-09-07T05:57:00.017Z,15.88
2022-09-07T05:59:27.089Z,15.73
2022-09-07T06:01:54.390Z,15.43
2022-09-07T06:04:21.648Z,15.48
2022-09-07T06:07:17.612Z,15.50
2022-09-07T06:09:35.916Z,15.85
2022-09-07T06:12:05.366Z,15.20
2022-09-07T06:14:33.761Z,15.18
2022-09-07T06:17:00.979Z,16.30
2022-09-07T06:19:28.128Z,16.83
2022-09-07T06:21:55.176Z,16.85
2022-09-07T06:24:22.263Z,17.00
2022-09-07T06:26:49.389Z,17.48
2022-09-07T06:29:16.503Z,17.33
2022-09-07T06:34:30.697Z,18.98
2022-09-07T06:36:57.722Z,19.98
2022-09-07T06:39:24.919Z,19.73
2022-09-07T06:41:59.162Z,19.88
2022-09-07T06:44:31.408Z,19.17
2022-09-07T06:49:27.062Z,19.35
2022-09-07T06:51:54.193Z,19.20
2022-09-07T06:57:09.388Z,19.52
2022-09-07T06:59:38.349Z,18.58
2022-09-07T07:02:07.039Z,19.15
2022-09-07T07:04:40.306Z,19.05
2022-09-07T07:07:12.678Z,18.80
2022-09-07T07:09:40.968Z,19.70
2022-09-07T07:12:08.814Z,18.85
2022-09-07T07:14:37.375Z,18.75
2022-09-07T07:17:06.917Z,19.08
2022-09-07T07:19:33.944Z,19.55
2022-09-07T07:22:23.846Z,19.48
2022-09-07T07:24:48.098Z,20.15
2022-09-07T07:27:15.376Z,20.17
2022-09-07T07:29:43.157Z,19.63
2022-09-07T07:32:10.196Z,19.77
2022-09-07T07:35:15.037Z,20.40
2022-09-07T07:37:44.799Z,19.88
2022-09-07T07:42:45.413Z,19.02
2022-09-07T07:48:00.253Z,18.83
2022-09-07T07:50:30.950Z,18.67
2022-09-07T07:55:45.872Z,18.73
2022-09-07T07:58:12.965Z,18.88
2022-09-07T08:00:53.770Z,18.20
2022-09-07T08:03:25.927Z,19.25
2022-09-07T08:05:54.527Z,18.02
2022-09-07T08:08:23.256Z,17.15
2022-09-07T08:10:50.765Z,16.63
2022-09-07T08:13:19.109Z,16.83
2022-09-07T08:15:46.583Z,16.52
2022-09-07T08:18:16.560Z,15.35
2022-09-07T08:20:44.352Z,14.85
2022-09-07T08:23:11.795Z,14.73
2022-09-07T08:25:39.267Z,14.82
2022-09-07T08:28:06.408Z,14.07
2022-09-07T08:30:33.523Z,14.18
2022-09-07T08:33:00.555Z,13.57
2022-09-07T08:35:27.692Z,13.98
2022-09-07T08:37:54.716Z,14.10
2022-09-07T08:40:21.769Z,14.07
2022-09-07T08:43:06.661Z,13.15
2022-09-07T08:45:48.364Z,12.70
2022-09-07T08:48:25.574Z,13.00
2022-09-07T08:51:02.845Z,12.40
2022-09-07T08:53:30.330Z,12.13
2022-09-07T08:56:24.967Z,12.25
2022-09-07T08:58:54.576Z,12.15
2022-09-07T09:01:42.635Z,11.48
2022-09-07T09:04:25.729Z,10.65
2022-09-07T09:07:22.815Z,10.65
2022-09-07T09:10:43.224Z,11.10
2022-09-07T09:13:24.284Z,11.10
2022-09-07T09:16:01.658Z,10.23
2022-09-07T09:18:36.993Z,10.43
2022-09-07T09:21:07.849Z,10.93
2022-09-07T09:23:41.257Z,10.32
2022-09-07T09:26:31.056Z,10.55
2022-09-07T09:28:58.029Z,10.13
2022-09-07T09:31:33.119Z,10.20
2022-09-07T09:34:14.866Z,10.00
2022-09-07T09:36:56.210Z,8.73
2022-09-07T09:39:29.310Z,7.90
2022-09-07T09:42:14.839Z,8.10
2022-09-07T09:44:43.232Z,7.53
2022-09-07T09:47:35.865Z,6.90
2022-09-07T09:53:29.913Z,6.30
2022-09-07T09:55:57.140Z,5.95
2022-09-07T10:01:35.905Z,6.28
2022-09-07T10:04:25.298Z,6.30
2022-09-07T10:07:00.315Z,5.60
2022-09-07T10:09:38.125Z,5.43
2022-09-07T10:12:08.222Z,6.05
2022-09-07T10:14:47.173Z,6.32
2022-09-07T10:17:19.766Z,5.93
2022-09-07T10:19:46.811Z,6.15
2022-09-07T10:22:37.067Z,5.40
2022-09-07T10:25:30.426Z,5.25
2022-09-07T10:28:15.422Z,4.78
2022-09-07T10:30:57.545Z,5.20
2022-09-07T10:39:37.034Z,4.50
2022-09-07T10:42:26.179Z,4.07
2022-09-07T10:45:26.276Z,4.38
2022-09-07T10:48:54.094Z,4.35
2022-09-07T10:51:35.567Z,3.90
2022-09-07T10:54:31.102Z,3.50
2022-09-07T10:57:49.225Z,3.25
2022-09-07T11:00:21.465Z,3.70
2022-09-07T11:06:17.874Z,3.63
2022-09-07T11:09:16.532Z,4.10
2022-09-07T11:12:04.725Z,3.40
2022-09-07T11:14:41.973Z,3.47
2022-09-07T11:17:17.486Z,3.70
2022-09-07T11:19:56.766Z,3.38
2022-09-07T11:22:38.272Z,3.58
2022-09-07T11:25:36.913Z,3.40
2022-09-07T11:28:23.162Z,4.10
2022-09-07T11:31:00.251Z,4.53
2022-09-07T11:37:10.992Z,4.47
2022-09-07T11:39:59.278Z,4.53
2022-09-07T11:42:50.304Z,4.70
2022-09-07T11:45:31.649Z,4.53
2022-09-07T11:48:30.351Z,4.88
2022-09-07T11:51:13.776Z,4.05
2022-09-07T11:53:49.994Z,3.75
2022-09-07T11:56:39.502Z,3.80
2022-09-07T11:59:39.816Z,4.20
2022-09-07T12:03:03.736Z,3.40
2022-09-07T12:06:19.052Z,3.05
2022-09-07T12:09:13.056Z,2.97
2022-09-07T12:11:55.178Z,2.80
2022-09-07T12:14:46.153Z,2.63
2022-09-07T12:17:57.905Z,2.55
2022-09-07T12:20:48.388Z,2.85
2022-09-07T12:23:15.195Z,2.83
2022-09-07T12:25:45.299Z,2.22
2022-09-07T12:28:24.210Z,2.58
2022-09-07T12:31:01.681Z,2.00
2022-09-07T12:33:40.409Z,1.92
2022-09-07T12:36:26.241Z,1.98
2022-09-07T12:45:30.195Z,2.08
2022-09-07T12:48:06.053Z,1.83
2022-09-07T12:51:59.624Z,2.20
2022-09-07T12:54:19.199Z,2.15
2022-09-07T13:00:23.351Z,2.40
2022-09-07T13:03:52.502Z,2.22
2022-09-07T13:07:03.750Z,2.08
2022-09-07T13:09:37.842Z,2.25
2022-09-07T13:15:52.793Z,2.00
2022-09-07T13:18:28.991Z,2.00
2022-09-07T13:21:34.014Z,1.50
2022-09-07T13:27:27.569Z,1.50
2022-09-07T13:30:16.665Z,1.50
2022-09-07T13:35:31.916Z,1.63
2022-09-07T13:38:03.838Z,2.00
2022-09-07T13:40:39.091Z,1.33
2022-09-07T13:43:20.682Z,1.63
2022-09-07T13:45:54.029Z,1.52
2022-09-07T13:48:42.093Z,1.30
2022-09-07T13:51:19.606Z,1.17
2022-09-07T13:54:20.004Z,1.30
2022-09-07T13:56:53.420Z,0.98
2022-09-07T13:59:28.028Z,1.30
2022-09-07T14:01:57.045Z,1.20
2022-09-07T14:04:27.932Z,1.23
2022-09-07T14:07:04.315Z,0.90
2022-09-07T14:09:31.820Z,1.00
2022-09-07T14:11:58.773Z,1.20
2022-09-07T14:14:30.089Z,1.52
2022-09-07T14:17:12.406Z,1.08
2022-09-07T14:19:48.484Z,0.98
2022-09-07T14:22:52.996Z,1.30
2022-09-07T14:25:22.515Z,1.40
2022-09-07T14:27:50.156Z,1.20
2022-09-07T14:30:23.172Z,1.05
2022-09-07T14:33:00.947Z,1.30
2022-09-07T14:35:38.657Z,1.35
2022-09-07T14:41:20.697Z,1.50
2022-09-07T14:43:59.989Z,1.40
2022-09-07T14:46:29.649Z,1.35
2022-09-07T14:49:03.329Z,1.08
2022-09-07T14:51:36.549Z,1.58
2022-09-07T14:54:06.429Z,1.10
2022-09-07T14:56:41.792Z,1.10
2022-09-07T14:59:39.502Z,1.10
2022-09-07T15:02:18.679Z,1.27
2022-09-07T15:04:48.027Z,1.30
2022-09-07T15:07:39.031Z,1.38
2022-09-07T15:10:21.243Z,1.30
2022-09-07T15:12:57.761Z,1.20
2022-09-07T15:15:37.385Z,1.20
2022-09-07T15:18:56.241Z,1.45
2022-09-07T15:21:29.687Z,1.20
2022-09-07T15:24:01.249Z,1.30
2022-09-07T15:27:03.286Z,1.08
2022-09-07T15:29:31.758Z,1.30
2022-09-07T15:32:03.908Z,1.17
2022-09-07T15:34:32.379Z,1.20
2022-09-07T15:37:01.054Z,1.60
2022-09-07T15:39:29.985Z,1.90
2022-09-07T15:41:58.878Z,2.45
2022-09-07T15:44:28.457Z,1.90
2022-09-07T15:49:49.557Z,2.40
2022-09-07T15:52:18.362Z,3.65
2022-09-07T15:54:45.633Z,3.72
2022-09-07T15:59:59.874Z,5.03
2022-09-07T16:05:14.146Z,2.90
2022-09-07T16:10:31.098Z,4.60
2022-09-07T16:13:03.287Z,5.30
2022-09-07T16:15:45.839Z,4.95
2022-09-07T16:18:18.265Z,4.93
2022-09-07T16:20:46.262Z,4.95
2022-09-07T16:23:16.979Z,5.05
2022-09-07T16:25:59.663Z,4.88
2022-09-07T16:28:27.762Z,3.72
2022-09-07T16:30:56.304Z,3.55
2022-09-07T16:33:34.411Z,3.92
2022-09-07T16:36:12.961Z,3.70
2022-09-07T16:38:44.539Z,3.72
2022-09-07T16:41:20.413Z,2.88
2022-09-07T16:43:48.481Z,3.47
2022-09-07T16:46:19.071Z,2.60
2022-09-07T16:48:46.220Z,2.22
2022-09-07T16:51:16.514Z,2.30
2022-09-07T16:53:43.949Z,2.15
2022-09-07T16:56:13.971Z,1.92
2022-09-07T16:58:45.034Z,1.98
2022-09-07T17:01:16.523Z,2.00
2022-09-07T17:03:44.214Z,1.85
2022-09-07T17:06:13.732Z,1.92
2022-09-07T17:08:42.035Z,1.90
2022-09-07T17:11:17.894Z,1.40
2022-09-07T17:16:15.045Z,1.70
2022-09-07T17:21:33.481Z,1.48
2022-09-07T17:24:04.352Z,2.08
2022-09-07T17:26:32.766Z,2.00
2022-09-07T17:29:01.000Z,1.88
2022-09-07T17:34:21.652Z,2.10
2022-09-07T17:36:49.153Z,1.88
2022-09-07T17:39:18.204Z,1.98
2022-09-07T17:41:47.941Z,2.10
2022-09-07T17:44:15.728Z,2.05
2022-09-07T17:46:42.821Z,2.00
2022-09-07T17:49:13.878Z,1.90
2022-09-07T17:51:41.312Z,2.05
2022-09-07T17:54:12.811Z,1.90
2022-09-07T17:56:41.302Z,2.28
2022-09-07T18:01:56.850Z,2.13
2022-09-07T18:04:24.574Z,2.30
2022-09-07T18:06:53.845Z,1.98
2022-09-07T18:09:21.694Z,1.98
2022-09-07T18:11:49.880Z,2.00
2022-09-07T18:14:19.164Z,2.00
2022-09-07T18:16:49.615Z,2.60
2022-09-07T18:19:18.363Z,2.28
2022-09-07T18:21:47.918Z,2.28
2022-09-07T18:24:24.298Z,2.10
2022-09-07T18:26:53.948Z,2.08
2022-09-07T18:29:33.980Z,2.20
2022-09-07T18:32:08.015Z,2.15
2022-09-07T18:34:37.292Z,1.90
2022-09-07T18:37:04.798Z,2.05
2022-09-07T18:39:32.335Z,2.28
2022-09-07T18:41:59.377Z,2.08
2022-09-07T18:47:21.795Z,2.40
2022-09-07T18:49:50.881Z,2.10
2022-09-07T18:55:07.860Z,2.33
2022-09-07T18:57:36.180Z,2.30
2022-09-07T19:00:06.221Z,2.20
2022-09-07T19:02:33.783Z,2.13
2022-09-07T19:07:48.144Z,2.30
2022-09-07T19:10:16.771Z,2.50
2022-09-07T19:12:45.811Z,2.50
2022-09-07T19:15:14.147Z,2.25
2022-09-07T19:17:41.238Z,2.35
2022-09-07T19:20:09.119Z,2.50
2022-09-07T19:22:36.156Z,2.70
2022-09-07T19:25:03.561Z,2.63
2022-09-07T19:27:32.974Z,3.05
2022-09-07T19:30:00.215Z,2.88
2022-09-07T19:32:27.356Z,2.67
2022-09-07T19:34:55.355Z,2.85
2022-09-07T19:37:25.360Z,2.88
2022-09-07T19:39:55.079Z,2.88
2022-09-07T19:42:23.683Z,2.90
2022-09-07T19:44:51.720Z,2.78
2022-09-07T19:47:19.759Z,3.03
2022-09-07T19:49:46.958Z,2.85
2022-09-07T19:52:14.060Z,3.10
2022-09-07T19:54:41.403Z,3.30
2022-09-07T19:57:08.809Z,2.97
2022-09-07T19:59:35.886Z,2.60
2022-09-07T20:02:03.000Z,2.90
2022-09-07T20:04:30.051Z,2.72
2022-09-07T20:06:57.083Z,2.90
2022-09-07T20:09:24.783Z,2.78
2022-09-07T20:11:51.808Z,3.05
2022-09-07T20:14:19.220Z,2.90
2022-09-07T20:16:46.466Z,2.92
2022-09-07T20:19:15.099Z,3.30
2022-09-07T20:21:42.880Z,3.05
2022-09-07T20:24:14.523Z,3.20
2022-09-07T20:26:41.952Z,3.15
2022-09-07T20:32:00.334Z,3.25
2022-09-07T20:34:28.511Z,2.83
2022-09-07T20:36:56.762Z,2.97
2022-09-07T20:39:24.160Z,3.10
2022-09-07T20:41:51.522Z,3.15
2022-09-07T20:44:18.897Z,3.20
2022-09-07T20:46:45.961Z,3.25
2022-09-07T20:49:13.153Z,3.22
2022-09-07T20:51:40.503Z,3.22
2022-09-07T20:54:07.544Z,3.63
2022-09-07T20:56:35.000Z,3.20
2022-09-07T20:59:03.891Z,3.83
2022-09-07T21:01:32.746Z,3.50
2022-09-07T21:04:01.202Z,3.53
2022-09-07T21:06:29.602Z,3.58
2022-09-07T21:08:57.316Z,3.42
2022-09-07T21:11:28.615Z,3.97
2022-09-07T21:14:01.426Z,4.22
2022-09-07T21:16:29.294Z,4.05
2022-09-07T21:18:59.330Z,3.85
2022-09-07T21:21:28.577Z,3.78
2022-09-07T21:23:59.033Z,4.47
2022-09-07T21:26:28.209Z,4.30
2022-09-07T21:29:01.097Z,4.13
2022-09-07T21:31:30.992Z,4.00
2022-09-07T21:34:00.884Z,4.35
2022-09-07T21:36:28.923Z,4.60
2022-09-07T21:38:56.701Z,4.57
2022-09-07T21:41:25.332Z,4.88
2022-09-07T21:44:00.979Z,5.13
2022-09-07T21:46:31.402Z,5.30
2022-09-07T21:48:59.459Z,5.38
2022-09-07T21:51:28.178Z,5.32
2022-09-07T21:54:00.033Z,5.82
2022-09-07T21:56:29.883Z,6.32
2022-09-07T21:59:00.103Z,6.20
2022-09-07T22:01:29.113Z,6.18
2022-09-07T22:04:00.108Z,6.50
2022-09-07T22:06:28.309Z,6.47
2022-09-07T22:08:55.943Z,6.70
2022-09-07T22:11:26.329Z,7.38
2022-09-07T22:14:02.636Z,7.10
2022-09-07T22:16:31.395Z,7.40
2022-09-07T22:18:59.017Z,7.90
2022-09-07T22:21:28.588Z,7.82
2022-09-07T22:24:00.093Z,7.72
2022-09-07T22:26:30.871Z,8.85
2022-09-07T22:28:58.200Z,8.05
2022-09-07T22:31:34.042Z,9.05
2022-09-07T22:36:39.677Z,9.35
2022-09-07T22:39:13.001Z,10.10
2022-09-07T22:41:41.691Z,10.55
2022-09-07T22:44:13.883Z,11.18
2022-09-07T22:46:43.700Z,11.25
2022-09-07T22:49:15.964Z,11.55
2022-09-07T22:51:44.050Z,11.40
2022-09-07T22:54:12.230Z,11.95
2022-09-07T22:56:40.224Z,11.77
2022-09-07T22:59:08.922Z,12.43
2022-09-07T23:01:37.148Z,13.38
2022-09-07T23:04:05.699Z,12.15
2022-09-07T23:06:39.772Z,13.95
2022-09-07T23:09:12.020Z,13.50
2022-09-07T23:11:39.533Z,12.85
2022-09-07T23:14:12.798Z,13.73
2022-09-07T23:16:40.128Z,14.02
2022-09-07T23:19:07.631Z,15.10
2022-09-07T23:21:34.801Z,14.30
2022-09-07T23:24:02.621Z,15.05
2022-09-07T23:26:31.687Z,14.20
2022-09-07T23:29:02.115Z,14.73
2022-09-07T23:31:33.864Z,17.08
2022-09-07T23:34:02.634Z,15.98
2022-09-07T23:36:30.328Z,17.92
2022-09-07T23:38:59.837Z,17.42
2022-09-07T23:41:27.344Z,17.73
2022-09-07T23:43:55.147Z,18.38
2022-09-07T23:46:22.751Z,18.48
2022-09-07T23:48:50.637Z,18.80
2022-09-07T23:51:22.748Z,19.88
2022-09-07T23:53:50.159Z,19.58
2022-09-07T23:56:17.204Z,20.45
2022-09-07T23:58:44.344Z,19.13
